YXEE weather

Moree Hospital Helipad
Moree, New South Wales, Australia

Public forecast

Using degrees Celsius for public forecast. Weather courtesy of forecast.io.

METAR (pilot weather report)

Closest report is Moree Airport, 1.7 nm (3.1 km) S. Retrieved 2019/09/18 00:00 UTC (15 minutes ago):

YMOR 180000Z AUTO 26005KT 220V290 9999 // NCD 17/08 Q1021

TAF (pilot weather forecast)

Closest forecast is Tamworth Airport, 110.0 nm (203.7 km) SSE. Retrieved 2019/09/17 18:36 UTC (6 hours ago):

TAF TAF YSTW 171715Z 1718/1812 35005KT 9999 -SHRA SCT010 FM172300 17012KT 9999 NSW SCT020 FM180200 17014KT 9999 SCT040 FM180900 15008KT CAVOK